Time;durP1;ratioP1;P1;durP2;ratioP2;P2;SDS_P1;SDS_P2;PMS_P1;PMS_P2;Temp;Humidity;BMP_temperature;BMP_pressure;BME280_temperature;BME280_humidity;BME280_pressure;Samples;Min_cycle;Max_cycle;Signal;HPM_P1;HPM_P2
2022/05/07 00:02:06;;;;;;;7.93;7.13;;;;;;;10.14;95.23;98708.22;5076834;28;20204;-70
2022/05/07 00:04:32;;;;;;;8.23;6.90;;;;;;;10.07;96.41;98695.94;5076440;28;20204;-71
2022/05/07 00:06:59;;;;;;;8.10;7.10;;;;;;;10.02;96.56;98698.38;5076564;28;20315;-71
2022/05/07 00:09:25;;;;;;;8.00;6.70;;;;;;;9.98;96.43;98691.81;5076715;28;20212;-71
2022/05/07 00:11:51;;;;;;;7.43;6.37;;;;;;;9.93;97.22;98694.25;5076665;28;20211;-70
2022/05/07 00:14:18;;;;;;;10.40;6.50;;;;;;;10.02;97.17;98691.22;5076614;28;20212;-71
2022/05/07 00:19:28;;;;;;;7.20;6.43;;;;;;;10.02;97.03;98687.72;5076301;28;20172;-71
2022/05/07 00:21:54;;;;;;;8.77;7.90;;;;;;;9.97;96.63;98687.53;5076140;28;20667;-71
2022/05/07 00:24:21;;;;;;;9.37;6.90;;;;;;;9.94;96.54;98687.91;5076357;28;20211;-71
2022/05/07 00:26:47;;;;;;;7.10;6.40;;;;;;;9.94;97.31;98691.41;5076074;28;20231;-71
2022/05/07 00:29:13;;;;;;;7.70;7.00;;;;;;;9.94;98.11;98686.09;5076196;28;20204;-71
2022/05/07 00:31:40;;;;;;;7.47;5.80;;;;;;;9.80;97.90;98684.41;5075856;28;20208;-71
2022/05/07 00:34:06;;;;;;;7.87;5.70;;;;;;;9.80;98.49;98684.41;5075093;28;20204;-71
2022/05/07 00:36:34;;;;;;;6.97;6.37;;;;;;;9.89;96.92;98677.06;5076248;28;20242;-71
2022/05/07 00:39:00;;;;;;;6.87;6.13;;;;;;;9.77;97.40;98684.78;5075808;28;20707;-71
2022/05/07 00:41:27;;;;;;;6.83;6.13;;;;;;;9.67;97.71;98681.69;5076152;28;20207;-71
2022/05/07 00:43:53;;;;;;;6.83;5.90;;;;;;;9.65;98.91;98680.25;5076102;28;20211;-71
2022/05/07 00:46:25;;;;;;;7.20;6.50;;;;;;;9.68;97.87;98687.81;5075682;28;20225;-71
2022/05/07 00:48:52;;;;;;;8.07;6.37;;;;;;;9.63;98.71;98684.91;5074852;28;20225;-71
2022/05/07 00:51:34;;;;;;;9.47;7.30;;;;;;;9.61;100.00;98673.69;5075970;28;20205;-71
2022/05/07 00:54:06;;;;;;;6.80;6.20;;;;;;;9.56;99.33;98676.13;5074440;28;20675;-71
2022/05/07 00:56:34;;;;;;;8.20;7.33;;;;;;;9.61;99.97;98679.84;5075599;28;20697;-71
2022/05/07 00:59:00;;;;;;;10.30;6.97;;;;;;;9.55;100.00;98672.63;5075814;28;20232;-71
2022/05/07 01:01:27;;;;;;;8.23;7.20;;;;;;;9.59;99.17;98673.09;5075804;28;20211;-71
2022/05/07 01:03:54;;;;;;;8.37;6.83;;;;;;;9.52;98.86;98678.38;5075731;28;20214;-71
2022/05/07 01:06:21;;;;;;;6.93;6.23;;;;;;;9.49;98.39;98672.59;5075607;28;20593;-71
2022/05/07 01:08:49;;;;;;;7.80;6.57;;;;;;;9.46;99.36;98670.38;5075299;28;20775;-71
2022/05/07 01:11:19;;;;;;;6.83;6.03;;;;;;;9.41;99.02;98676.25;5075581;28;20204;-71
2022/05/07 01:13:47;;;;;;;7.90;6.60;;;;;;;9.34;98.94;98667.44;5075279;28;20713;-71
2022/05/07 01:16:14;;;;;;;6.90;6.30;;;;;;;9.29;99.35;98663.75;5075951;28;20553;-71
2022/05/07 01:18:42;;;;;;;7.73;6.20;;;;;;;9.24;100.00;98666.97;5075229;28;20225;-71
2022/05/07 01:21:14;;;;;;;7.63;6.17;;;;;;;9.31;99.90;98659.88;5075319;28;20239;-71
2022/05/07 01:23:42;;;;;;;7.10;6.50;;;;;;;9.36;100.00;98657.44;5075278;28;20204;-71
2022/05/07 01:26:09;;;;;;;9.23;6.87;;;;;;;9.31;99.79;98662.53;5074871;28;20597;-71
2022/05/07 01:28:35;;;;;;;10.10;7.00;;;;;;;9.30;99.92;98660.91;5074775;28;20228;-71
2022/05/07 01:31:02;;;;;;;18.97;7.67;;;;;;;9.32;100.00;98658.03;5074825;28;20204;-71
2022/05/07 01:33:29;;;;;;;17.33;8.20;;;;;;;9.33;99.88;98657.81;5075096;28;20285;-71
2022/05/07 01:35:55;;;;;;;11.23;7.77;;;;;;;9.30;100.00;98657.41;5075042;28;20293;-71
2022/05/07 01:38:21;;;;;;;13.03;8.43;;;;;;;9.31;100.00;98657.22;5074551;28;20224;-71
2022/05/07 01:40:48;;;;;;;13.87;8.23;;;;;;;9.36;100.00;98660.09;5074658;28;20204;-71
2022/05/07 01:43:14;;;;;;;13.60;9.50;;;;;;;9.35;100.00;98662.94;5074897;28;20226;-71
2022/05/07 01:45:41;;;;;;;10.53;8.37;;;;;;;9.30;100.00;98652.94;5074613;28;20204;-71
2022/05/07 01:48:13;;;;;;;11.87;8.67;;;;;;;9.32;100.00;98655.41;5074766;28;20224;-71
2022/05/07 01:50:41;;;;;;;10.37;8.40;;;;;;;9.34;100.00;98651.53;5074827;28;20205;-71
2022/05/07 01:53:10;;;;;;;8.83;7.93;;;;;;;9.30;100.00;98654.75;5074405;28;20216;-71
2022/05/07 01:55:36;;;;;;;9.20;8.23;;;;;;;9.34;100.00;98661.31;5074606;28;20213;-71
2022/05/07 01:58:03;;;;;;;13.97;8.40;;;;;;;9.32;100.00;98664.16;5074182;28;20220;-70
2022/05/07 02:00:31;;;;;;;10.10;9.00;;;;;;;9.35;100.00;98662.94;5074561;28;20204;-71
2022/05/07 02:02:59;;;;;;;9.67;8.17;;;;;;;9.48;100.00;98665.66;5074514;28;20578;-71
2022/05/07 02:05:26;;;;;;;7.77;7.07;;;;;;;9.40;98.72;98657.88;5074377;28;20205;-71
2022/05/07 02:07:53;;;;;;;7.97;6.23;;;;;;;9.11;99.03;98660.78;5074041;28;20225;-71
2022/05/07 02:10:20;;;;;;;6.97;6.07;;;;;;;8.94;100.00;98665.56;5072904;28;20695;-71
2022/05/07 02:12:47;;;;;;;10.13;6.53;;;;;;;8.92;100.00;98666.78;5074053;28;20694;-71
2022/05/07 02:15:14;;;;;;;7.17;6.43;;;;;;;8.93;100.00;98671.06;5074845;28;20209;-71
2022/05/07 02:17:40;;;;;;;8.60;6.93;;;;;;;8.89;100.00;98670.63;5074235;28;20227;-71
2022/05/07 02:20:08;;;;;;;9.00;7.20;;;;;;;8.86;100.00;98665.72;5073851;28;20211;-71
2022/05/07 02:22:34;;;;;;;6.47;5.87;;;;;;;8.86;100.00;98670.19;5074203;28;20209;-71
2022/05/07 02:25:01;;;;;;;10.30;6.07;;;;;;;9.12;99.12;98667.72;5074141;28;20212;-71
2022/05/07 02:27:27;;;;;;;6.57;5.70;;;;;;;9.08;98.68;98658.50;5073952;28;20307;-70
2022/05/07 02:29:54;;;;;;;8.20;5.93;;;;;;;8.96;99.48;98663.53;5073986;28;20208;-71
2022/05/07 02:32:20;;;;;;;6.90;6.17;;;;;;;8.97;99.68;98665.16;5073952;28;20204;-71
2022/05/07 02:34:46;;;;;;;6.07;5.50;;;;;;;8.97;97.89;98667.81;5074264;28;20204;-71
2022/05/07 02:37:13;;;;;;;6.00;5.13;;;;;;;8.94;97.68;98672.69;5073515;28;20225;-71
2022/05/07 02:39:40;;;;;;;6.10;5.40;;;;;;;8.80;98.49;98663.84;5074209;28;20220;-71
2022/05/07 02:44:51;;;;;;;5.87;5.37;;;;;;;8.61;99.83;98668.97;5073918;28;20184;-71
2022/05/07 02:47:17;;;;;;;7.83;5.80;;;;;;;8.61;99.36;98663.69;5073671;28;20224;-71
2022/05/07 02:49:44;;;;;;;6.10;5.53;;;;;;;8.57;98.94;98667.72;5073714;28;20204;-71
2022/05/07 02:52:10;;;;;;;6.50;5.27;;;;;;;8.55;99.48;98673.19;5073630;28;20212;-71
2022/05/07 02:54:36;;;;;;;5.10;4.60;;;;;;;8.55;100.00;98675.84;5073615;28;20193;-71
2022/05/07 02:57:03;;;;;;;6.20;5.07;;;;;;;8.47;100.00;98667.22;5072735;28;20562;-71
2022/05/07 02:59:29;;;;;;;6.13;5.20;;;;;;;8.56;99.81;98666.88;5073772;28;20208;-71
2022/05/07 03:01:56;;;;;;;6.23;5.67;;;;;;;8.53;100.00;98671.75;5073633;28;20283;-70
2022/05/07 03:04:22;;;;;;;5.80;5.27;;;;;;;8.53;100.00;98675.25;5073300;28;20211;-71
2022/05/07 03:06:49;;;;;;;6.47;5.80;;;;;;;8.49;100.00;98673.97;5073422;28;20587;-71
2022/05/07 03:09:16;;;;;;;7.77;5.57;;;;;;;8.42;100.00;98674.94;5073276;28;20667;-71
2022/05/07 03:11:43;;;;;;;7.47;5.87;;;;;;;8.42;100.00;98672.28;5073512;28;20204;-71
2022/05/07 03:14:09;;;;;;;6.40;5.80;;;;;;;8.38;100.00;98669.16;5073928;28;20231;-71
2022/05/07 03:16:38;;;;;;;5.90;5.13;;;;;;;8.34;100.00;98678.53;5073477;28;20200;-71
2022/05/07 03:19:05;;;;;;;7.20;6.27;;;;;;;8.25;100.00;98671.72;5072921;28;20228;-71
2022/05/07 03:21:31;;;;;;;5.60;5.10;;;;;;;8.36;100.00;98675.66;5073705;28;20204;-71
2022/05/07 03:23:57;;;;;;;6.13;5.50;;;;;;;8.30;100.00;98671.97;5073421;28;20246;-71
2022/05/07 03:26:24;;;;;;;7.37;5.70;;;;;;;8.19;100.00;98669.78;5073373;28;20229;-71
2022/05/07 03:28:51;;;;;;;7.03;6.10;;;;;;;8.19;100.00;98663.69;5073243;28;20230;-71
2022/05/07 03:31:19;;;;;;;6.77;6.13;;;;;;;8.23;100.00;98664.97;5073300;28;20204;-71
2022/05/07 03:33:48;;;;;;;6.63;5.93;;;;;;;8.18;100.00;98667.31;5073027;28;20564;-71
2022/05/07 03:36:16;;;;;;;5.90;5.40;;;;;;;8.28;100.00;98675.81;5073226;28;20219;-71
2022/05/07 03:38:43;;;;;;;6.77;6.07;;;;;;;8.26;100.00;98667.22;5073209;28;20277;-71
2022/05/07 03:41:09;;;;;;;6.53;6.03;;;;;;;8.18;100.00;98668.16;5073224;28;20204;-71
2022/05/07 03:43:36;;;;;;;7.53;5.90;;;;;;;8.25;100.00;98668.25;5073151;28;20223;-71
2022/05/07 03:46:03;;;;;;;7.23;6.53;;;;;;;8.26;100.00;98664.56;5073143;28;20228;-71
2022/05/07 03:48:30;;;;;;;8.27;5.40;;;;;;;8.27;100.00;98666.22;5073159;28;20302;-71
2022/05/07 03:50:56;;;;;;;6.70;6.10;;;;;;;8.20;100.00;98670.59;5072885;28;20659;-71
2022/05/07 03:53:31;;;;;;;8.83;6.53;;;;;;;8.29;100.00;98667.66;5072777;28;20216;-71
2022/05/07 03:55:58;;;;;;;8.80;7.20;;;;;;;8.31;100.00;98668.31;5073596;28;20191;-71
2022/05/07 03:58:26;;;;;;;7.87;7.07;;;;;;;8.34;100.00;98669.75;5073036;28;20243;-71
2022/05/07 04:00:54;;;;;;;9.10;7.00;;;;;;;8.24;100.00;98675.34;5072712;28;20236;-71
2022/05/07 04:03:22;;;;;;;7.70;7.00;;;;;;;8.23;100.00;98670.28;5073029;28;20258;-71
2022/05/07 04:05:49;;;;;;;8.07;6.90;;;;;;;8.20;100.00;98665.31;5072996;28;20205;-71
2022/05/07 04:08:16;;;;;;;8.03;7.33;;;;;;;8.18;100.00;98665.50;5073712;28;20228;-71
2022/05/07 04:10:43;;;;;;;10.37;7.07;;;;;;;8.23;100.00;98672.94;5076652;28;20211;-71
2022/05/07 04:13:11;;;;;;;9.10;7.57;;;;;;;8.22;100.00;98669.44;5076625;28;20246;-71
2022/05/07 04:15:37;;;;;;;8.97;8.03;;;;;;;8.28;100.00;98668.69;5076602;28;20204;-71
2022/05/07 04:18:06;;;;;;;8.70;7.27;;;;;;;8.34;100.00;98678.53;5076503;28;20220;-71
2022/05/07 04:20:32;;;;;;;8.23;7.43;;;;;;;8.35;100.00;98671.38;5076031;28;20570;-71
2022/05/07 04:22:59;;;;;;;9.00;8.10;;;;;;;8.37;100.00;98667.53;5076399;28;20214;-71
2022/05/07 04:25:25;;;;;;;8.87;7.97;;;;;;;8.39;100.00;98670.00;5076454;28;20212;-71
2022/05/07 04:27:52;;;;;;;8.43;7.63;;;;;;;8.39;100.00;98677.94;5075993;28;20721;-71
2022/05/07 04:30:18;;;;;;;12.23;7.60;;;;;;;8.37;100.00;98678.13;5076383;28;20312;-70
2022/05/07 04:32:45;;;;;;;8.67;7.77;;;;;;;8.40;100.00;98679.59;5076001;28;20659;-71
2022/05/07 04:35:11;;;;;;;9.07;8.27;;;;;;;8.43;100.00;98673.91;5075895;28;20212;-71
2022/05/07 04:37:37;;;;;;;9.63;8.63;;;;;;;8.51;100.00;98684.38;5076088;28;20231;-71
2022/05/07 04:40:05;;;;;;;11.20;9.80;;;;;;;8.57;100.00;98686.28;5076788;28;20209;-71
2022/05/07 04:42:31;;;;;;;10.63;9.63;;;;;;;8.59;100.00;98682.41;5075774;28;20215;-71
2022/05/07 04:44:57;;;;;;;11.23;10.07;;;;;;;8.66;100.00;98685.13;5076095;28;20322;-71
2022/05/07 04:47:24;;;;;;;10.60;9.60;;;;;;;8.68;100.00;98691.03;5075852;28;20243;-71
2022/05/07 04:49:51;;;;;;;10.47;8.27;;;;;;;8.74;100.00;98680.50;5075592;28;20615;-71
2022/05/07 04:52:17;;;;;;;10.27;9.27;;;;;;;8.81;100.00;98686.69;5075810;28;20208;-70
2022/05/07 04:54:43;;;;;;;11.87;10.23;;;;;;;9.00;100.00;98683.34;5075910;28;20189;-71
2022/05/07 04:57:10;;;;;;;11.20;10.07;;;;;;;9.33;100.00;98680.91;5075828;28;20224;-71
2022/05/07 04:59:36;;;;;;;12.43;10.60;;;;;;;9.75;100.00;98683.34;5075800;28;20207;-71
2022/05/07 05:02:02;;;;;;;10.97;9.87;;;;;;;9.85;100.00;98689.09;5075794;28;20236;-71
2022/05/07 05:04:29;;;;;;;11.43;10.23;;;;;;;9.92;100.00;98687.31;5075739;28;20226;-71
2022/05/07 05:06:55;;;;;;;13.90;10.70;;;;;;;9.87;99.83;98687.09;5075426;28;20232;-71
2022/05/07 05:09:22;;;;;;;12.97;10.40;;;;;;;9.73;100.00;98696.00;5075574;28;20215;-71
2022/05/07 05:11:48;;;;;;;11.77;10.67;;;;;;;9.64;100.00;98691.88;5075556;28;20205;-71
2022/05/07 05:16:58;;;;;;;12.40;11.13;;;;;;;9.74;100.00;98695.78;5075414;28;20576;-71
2022/05/07 05:19:25;;;;;;;11.83;10.63;;;;;;;9.83;100.00;98701.78;5075179;28;20205;-71
2022/05/07 05:21:51;;;;;;;13.10;11.67;;;;;;;9.87;100.00;98703.03;5075934;28;20218;-71
2022/05/07 05:24:17;;;;;;;12.63;11.43;;;;;;;9.95;100.00;98697.50;5076019;28;20204;-71
2022/05/07 05:26:44;;;;;;;11.77;10.57;;;;;;;10.04;100.00;98699.84;5074975;28;20216;-71
2022/05/07 05:29:10;;;;;;;12.97;11.60;;;;;;;10.10;100.00;98698.22;5075018;28;20213;-71
2022/05/07 05:31:37;;;;;;;12.10;10.93;;;;;;;10.24;100.00;98699.88;5075188;28;20212;-71
2022/05/07 05:34:03;;;;;;;12.87;11.57;;;;;;;10.38;99.92;98699.72;5075054;28;20622;-71
2022/05/07 05:36:30;;;;;;;11.83;10.63;;;;;;;10.43;98.88;98704.41;5074728;28;20667;-71
2022/05/07 05:38:56;;;;;;;14.47;11.53;;;;;;;10.48;98.68;98705.47;5074826;28;20246;-71
2022/05/07 05:41:23;;;;;;;11.53;10.33;;;;;;;10.58;98.66;98710.34;5074964;28;20209;-71
2022/05/07 05:43:49;;;;;;;11.67;10.27;;;;;;;10.59;96.40;98714.69;5074887;28;20201;-71
2022/05/07 05:46:16;;;;;;;12.57;10.80;;;;;;;10.92;94.83;98712.84;5074914;28;20208;-71
2022/05/07 05:48:42;;;;;;;14.27;11.17;;;;;;;10.90;96.09;98715.72;5074661;28;20255;-71
2022/05/07 05:51:09;;;;;;;12.43;11.20;;;;;;;11.01;97.04;98714.28;5074734;28;20213;-71
2022/05/07 05:53:35;;;;;;;13.33;10.97;;;;;;;11.23;92.27;98716.50;5074388;28;20669;-71
2022/05/07 05:56:01;;;;;;;12.17;10.97;;;;;;;11.22;93.54;98724.72;5074172;28;20569;-71
2022/05/07 05:58:33;;;;;;;13.17;11.87;;;;;;;11.22;94.34;98716.72;5074514;28;20579;-71
2022/05/07 06:01:05;;;;;;;12.57;11.40;;;;;;;11.16;95.45;98725.50;5074592;28;20250;-71
2022/05/07 06:03:32;;;;;;;12.43;11.10;;;;;;;11.18;93.67;98724.28;5074526;28;20185;-71
2022/05/07 06:05:58;;;;;;;11.37;10.37;;;;;;;11.23;93.20;98724.47;5074433;28;20207;-71
2022/05/07 06:08:25;;;;;;;12.53;11.03;;;;;;;11.42;93.05;98719.34;5074209;28;20228;-71
2022/05/07 06:10:54;;;;;;;12.23;11.13;;;;;;;11.47;92.89;98717.69;5074353;28;20287;-71
2022/05/07 06:13:20;;;;;;;11.33;10.33;;;;;;;11.58;90.56;98718.91;5074310;28;20296;-71
2022/05/07 06:15:51;;;;;;;11.67;10.47;;;;;;;11.58;90.30;98724.22;5074316;28;20207;-71
2022/05/07 06:18:19;;;;;;;11.43;10.17;;;;;;;11.64;91.12;98716.25;5074424;28;20251;-71
2022/05/07 06:20:46;;;;;;;11.73;10.63;;;;;;;11.71;91.25;98716.22;5074101;28;20235;-71
2022/05/07 06:23:12;;;;;;;11.60;10.60;;;;;;;11.60;89.96;98725.69;5074134;28;20212;-71
2022/05/07 06:28:23;;;;;;;11.73;10.53;;;;;;;11.84;88.41;98722.31;5073766;28;20219;-71
2022/05/07 06:30:50;;;;;;;11.93;10.67;;;;;;;11.99;88.77;98733.56;5073983;28;20200;-71
2022/05/07 06:33:17;;;;;;;11.73;10.63;;;;;;;11.86;88.23;98722.94;5073071;28;20201;-71
2022/05/07 06:35:43;;;;;;;12.50;11.00;;;;;;;12.04;87.16;98733.72;5073849;28;20300;-71
2022/05/07 06:38:10;;;;;;;11.00;9.97;;;;;;;12.13;87.50;98731.63;5073472;28;20780;-70
2022/05/07 06:40:38;;;;;;;13.17;11.30;;;;;;;12.40;87.62;98725.13;5073852;28;20204;-71
2022/05/07 06:43:05;;;;;;;12.20;10.97;;;;;;;12.25;87.26;98736.06;5073555;28;20205;-71
2022/05/07 06:45:33;;;;;;;11.93;10.83;;;;;;;12.39;86.40;98734.97;5073724;28;20213;-71
2022/05/07 06:47:59;;;;;;;12.37;11.27;;;;;;;12.35;86.28;98733.75;5073266;28;20229;-71
2022/05/07 06:50:26;;;;;;;12.83;11.60;;;;;;;12.45;85.67;98739.47;5073451;28;20580;-71
2022/05/07 06:52:52;;;;;;;14.50;11.23;;;;;;;12.48;85.52;98728.34;5073070;28;20676;-71
2022/05/07 06:55:20;;;;;;;11.63;10.33;;;;;;;12.38;85.24;98732.53;5073434;28;20263;-71
2022/05/07 06:57:47;;;;;;;11.87;10.77;;;;;;;12.57;83.64;98737.75;5073373;28;20233;-71
2022/05/07 07:00:15;;;;;;;12.27;10.73;;;;;;;12.84;81.71;98730.38;5073584;28;20214;-71
2022/05/07 07:02:42;;;;;;;12.63;11.33;;;;;;;12.68;82.01;98733.56;5073227;28;20214;-71
2022/05/07 07:05:10;;;;;;;12.27;11.07;;;;;;;12.85;82.06;98734.69;5073443;28;20202;-71
2022/05/07 07:07:36;;;;;;;11.57;10.47;;;;;;;13.10;81.73;98735.53;5073343;28;20227;-71
2022/05/07 07:10:02;;;;;;;11.27;10.17;;;;;;;13.04;81.57;98739.91;5073488;28;20207;-71
2022/05/07 07:12:29;;;;;;;12.30;11.10;;;;;;;13.15;80.40;98733.84;5073293;28;20211;-71
2022/05/07 07:14:55;;;;;;;13.17;11.80;;;;;;;13.20;81.06;98742.00;5073287;28;20294;-71
2022/05/07 07:17:23;;;;;;;12.07;10.23;;;;;;;13.34;74.80;98732.84;5073051;28;20242;-71
2022/05/07 07:19:49;;;;;;;12.07;10.87;;;;;;;13.50;75.76;98729.63;5073327;28;20209;-71
2022/05/07 07:22:15;;;;;;;10.70;9.60;;;;;;;13.39;73.66;98734.88;5073283;28;20201;-71
2022/05/07 07:24:42;;;;;;;11.53;10.43;;;;;;;13.70;76.46;98727.53;5072859;28;20215;-71
2022/05/07 07:27:08;;;;;;;11.43;9.73;;;;;;;13.47;75.45;98732.72;5073310;28;20227;-71
2022/05/07 07:29:35;;;;;;;10.33;9.27;;;;;;;13.60;76.87;98734.44;5073246;28;20318;-71
2022/05/07 07:32:01;;;;;;;12.87;11.53;;;;;;;13.68;75.77;98726.97;5073277;28;20212;-71
2022/05/07 07:34:28;;;;;;;11.90;10.70;;;;;;;13.82;76.34;98732.97;5072914;28;20686;-71
2022/05/07 07:36:54;;;;;;;12.07;10.10;;;;;;;14.04;73.66;98732.31;5073089;28;20239;-71
2022/05/07 07:39:21;;;;;;;12.43;10.33;;;;;;;13.90;73.65;98735.34;5073044;28;20299;-70
2022/05/07 07:41:47;;;;;;;11.70;10.07;;;;;;;13.92;75.11;98726.06;5072581;28;20751;-71
2022/05/07 07:44:13;;;;;;;11.07;9.97;;;;;;;14.13;75.00;98720.25;5075606;28;20559;-70
2022/05/07 07:49:38;;;;;;;11.47;10.27;;;;;;;14.58;73.83;98721.53;5034676;28;20198;-71
2022/05/07 07:52:05;;;;;;;12.67;10.13;;;;;;;14.59;72.46;98722.31;5034488;28;21027;-71
2022/05/07 07:54:32;;;;;;;11.07;10.07;;;;;;;14.56;72.48;98715.56;5052966;28;20231;-71
2022/05/07 07:57:02;;;;;;;11.03;9.67;;;;;;;14.53;72.48;98720.56;5076800;28;20215;-71
2022/05/07 07:59:29;;;;;;;12.50;10.07;;;;;;;14.61;72.61;98717.56;5076485;28;20697;-71
2022/05/07 08:01:56;;;;;;;11.60;9.37;;;;;;;14.92;74.38;98720.78;5076825;28;20210;-71
2022/05/07 08:04:25;;;;;;;12.17;9.87;;;;;;;15.11;71.51;98714.28;5076673;28;20204;-71
2022/05/07 08:12:19;;;;;;;10.60;9.60;;;;;;;15.21;71.75;98717.22;5076162;28;20195;-71
2022/05/07 08:14:45;;;;;;;10.60;9.47;;;;;;;15.49;68.75;98720.03;5076220;28;20215;-71
2022/05/07 08:17:13;;;;;;;10.80;9.40;;;;;;;15.57;68.06;98724.22;5076415;28;20659;-71
2022/05/07 08:19:40;;;;;;;9.90;8.90;;;;;;;15.48;68.50;98721.09;5076727;28;20201;-71
2022/05/07 08:22:06;;;;;;;9.43;8.40;;;;;;;15.44;69.59;98719.94;5076233;28;20204;-71
2022/05/07 08:24:32;;;;;;;8.47;7.57;;;;;;;15.88;67.98;98719.28;5076171;28;20296;-71
2022/05/07 08:26:59;;;;;;;7.83;7.03;;;;;;;15.93;67.53;98716.69;5075542;28;20213;-71
2022/05/07 08:29:27;;;;;;;8.73;7.67;;;;;;;16.07;65.82;98719.94;5075753;28;20278;-71
2022/05/07 08:31:53;;;;;;;8.40;7.50;;;;;;;16.08;65.43;98719.72;5076209;28;20254;-71
2022/05/07 08:34:19;;;;;;;9.27;8.23;;;;;;;16.27;65.59;98715.78;5075769;28;20204;-71
2022/05/07 08:36:46;;;;;;;8.93;8.13;;;;;;;16.21;63.93;98715.94;5075879;28;20215;-71
2022/05/07 08:39:12;;;;;;;10.00;9.07;;;;;;;16.23;65.24;98724.53;5075757;28;20215;-71
2022/05/07 08:41:39;;;;;;;10.53;9.53;;;;;;;16.28;63.59;98721.97;5075461;28;20211;-71
2022/05/07 08:44:05;;;;;;;9.93;8.93;;;;;;;16.45;65.63;98715.63;5074745;28;20208;-71
2022/05/07 08:46:32;;;;;;;10.20;9.20;;;;;;;16.64;65.07;98716.25;5075885;28;20251;-71
2022/05/07 08:48:59;;;;;;;11.53;9.53;;;;;;;16.86;65.27;98712.59;5073956;28;20236;-71
2022/05/07 08:51:26;;;;;;;11.30;10.20;;;;;;;16.83;65.92;98714.97;5075813;28;20295;-70
2022/05/07 08:53:54;;;;;;;10.20;9.33;;;;;;;16.81;64.90;98712.53;5075464;28;20217;-71
2022/05/07 08:56:21;;;;;;;10.37;9.37;;;;;;;16.74;62.57;98713.75;5074770;28;20205;-71
2022/05/07 08:58:52;;;;;;;10.03;9.20;;;;;;;16.91;62.42;98723.44;5075513;28;20224;-71
2022/05/07 09:01:18;;;;;;;10.53;9.43;;;;;;;16.57;62.67;98713.72;5075802;28;20197;-71
2022/05/07 09:03:47;;;;;;;10.90;9.60;;;;;;;17.00;63.29;98713.91;5075240;28;20665;-71
2022/05/07 09:06:25;;;;;;;10.53;9.57;;;;;;;17.33;61.87;98711.22;5075602;28;20208;-72
2022/05/07 09:08:53;;;;;;;11.17;9.40;;;;;;;16.91;60.95;98712.69;5075281;28;20232;-71
2022/05/07 09:11:20;;;;;;;12.87;9.90;;;;;;;16.87;65.57;98711.53;5075781;28;20209;-71
2022/05/07 09:13:47;;;;;;;11.07;9.83;;;;;;;17.37;60.68;98712.34;5075458;28;20205;-70
2022/05/07 09:16:14;;;;;;;9.23;7.37;;;;;;;17.47;59.32;98703.66;5075367;28;20204;-70
2022/05/07 09:18:47;;;;;;;7.93;6.40;;;;;;;17.47;56.97;98715.22;5075315;28;20289;-71
2022/05/07 09:21:26;;;;;;;8.33;6.60;;;;;;;17.51;55.75;98708.28;5075661;28;20548;-71
2022/05/07 09:23:58;;;;;;;7.60;5.77;;;;;;;17.74;57.55;98697.31;5074995;28;20653;-71
2022/05/07 09:26:27;;;;;;;6.60;6.00;;;;;;;17.89;54.63;98708.28;5075047;28;20204;-71
2022/05/07 09:28:54;;;;;;;10.03;5.10;;;;;;;18.04;54.52;98707.66;5075011;28;20229;-71
2022/05/07 09:31:28;;;;;;;6.73;4.87;;;;;;;17.92;53.29;98696.22;5075110;28;20212;-71
2022/05/07 09:35:47;;;;;;;6.17;4.67;;;;;;;18.15;54.55;98699.44;5074514;28;20200;-71
2022/05/07 09:36:45;;;;;;;5.10;4.60;;;;;;;18.04;53.72;98699.56;5074564;28;20274;-71
2022/05/07 09:39:13;;;;;;;6.43;4.17;;;;;;;18.44;52.65;98694.69;5074987;28;20651;-71
2022/05/07 09:41:43;;;;;;;6.57;4.27;;;;;;;17.91;51.78;98686.53;5074482;28;20568;-71
2022/05/07 09:44:13;;;;;;;6.23;4.27;;;;;;;18.43;51.52;98693.88;5074488;28;20189;-71
2022/05/07 09:46:40;;;;;;;6.03;4.33;;;;;;;18.45;52.54;98688.22;5074692;28;20216;-71
2022/05/07 09:49:08;;;;;;;6.57;4.20;;;;;;;18.63;51.21;98690.56;5074572;28;20228;-71
2022/05/07 09:51:34;;;;;;;4.53;3.57;;;;;;;18.78;52.08;98685.34;5074247;28;20659;-71
2022/05/07 09:59:29;;;;;;;4.03;3.13;;;;;;;18.90;47.77;98686.78;5074224;28;20207;-71
2022/05/07 10:02:16;;;;;;;5.50;3.73;;;;;;;19.00;49.28;98686.84;5073170;28;20291;-71
2022/05/07 10:04:58;;;;;;;6.17;3.30;;;;;;;19.16;49.33;98682.41;5074225;28;20208;-71
2022/05/07 10:07:30;;;;;;;6.03;4.33;;;;;;;19.07;52.16;98676.69;5073909;28;20725;-71
2022/05/07 10:10:08;;;;;;;4.10;3.67;;;;;;;19.39;50.96;98671.28;5074373;28;20220;-71
2022/05/07 10:12:36;;;;;;;6.27;3.90;;;;;;;19.20;48.47;98665.47;5074249;28;20532;-71
2022/05/07 10:15:12;;;;;;;3.80;3.50;;;;;;;19.48;51.28;98667.84;5074202;28;20209;-71
2022/05/07 10:17:38;;;;;;;3.27;2.97;;;;;;;19.80;46.14;98667.72;5074139;28;20297;-71
2022/05/07 10:20:11;;;;;;;2.60;1.80;;;;;;;19.81;41.56;98663.94;5073894;28;20197;-71
2022/05/07 10:22:39;;;;;;;2.77;1.60;;;;;;;20.07;39.69;98664.88;5073884;28;20192;-71
2022/05/07 10:25:11;;;;;;;2.67;2.00;;;;;;;19.72;41.32;98662.03;5074161;28;20200;-71
2022/05/07 10:27:42;;;;;;;3.83;2.57;;;;;;;19.91;41.05;98657.78;5073972;28;20227;-71
2022/05/07 10:30:21;;;;;;;3.03;2.83;;;;;;;19.21;42.64;98661.69;5074274;28;20204;-71
2022/05/07 10:33:01;;;;;;;3.47;2.63;;;;;;;19.04;42.42;98669.09;5073680;28;20635;-71
2022/05/07 10:35:43;;;;;;;3.20;2.47;;;;;;;19.04;45.01;98661.03;5073638;28;20231;-71
2022/05/07 10:38:13;;;;;;;2.70;2.50;;;;;;;19.41;43.43;98656.44;5073556;28;20580;-71
2022/05/07 10:40:52;;;;;;;3.03;2.63;;;;;;;19.53;41.66;98658.94;5073289;28;20199;-71
2022/05/07 10:43:25;;;;;;;5.33;3.07;;;;;;;18.98;44.80;98651.28;5073568;28;20298;-71
2022/05/07 10:45:56;;;;;;;2.70;2.50;;;;;;;19.46;44.85;98650.28;5073655;28;20208;-71
2022/05/07 10:48:23;;;;;;;4.10;2.70;;;;;;;19.03;41.97;98642.41;5073026;28;20236;-71
2022/05/07 10:50:54;;;;;;;3.83;2.40;;;;;;;19.49;43.12;98641.66;5073145;28;20682;-71
2022/05/07 10:53:21;;;;;;;3.00;2.50;;;;;;;19.57;43.23;98637.69;5073376;28;20212;-71
2022/05/07 10:55:51;;;;;;;2.57;2.20;;;;;;;19.90;43.13;98642.69;5073526;28;20212;-71
2022/05/07 10:58:28;;;;;;;5.00;2.30;;;;;;;19.58;42.41;98642.78;5073590;28;20326;-71
2022/05/07 11:00:58;;;;;;;2.90;2.63;;;;;;;19.45;41.40;98644.06;5073555;28;20193;-71
2022/05/07 11:03:28;;;;;;;3.37;2.70;;;;;;;19.53;43.55;98640.88;5073285;28;20227;-71
2022/05/07 11:06:02;;;;;;;3.23;2.40;;;;;;;19.75;43.96;98639.91;5073645;28;20208;-71
2022/05/07 11:08:30;;;;;;;4.03;2.67;;;;;;;19.84;41.34;98632.94;5073046;28;20682;-71
2022/05/07 11:11:07;;;;;;;6.03;2.43;;;;;;;19.86;41.53;98639.69;5073073;28;20295;-71
2022/05/07 11:13:39;;;;;;;6.37;2.30;;;;;;;19.75;40.41;98624.53;5073088;28;20298;-71
2022/05/07 11:16:06;;;;;;;4.40;2.13;;;;;;;19.82;42.97;98635.09;5073184;28;20193;-71
2022/05/07 11:18:35;;;;;;;4.43;2.43;;;;;;;20.09;40.97;98638.44;5072646;28;20242;-70
2022/05/07 11:21:03;;;;;;;2.80;2.60;;;;;;;19.73;41.16;98631.25;5072990;28;20205;-71
2022/05/07 11:23:31;;;;;;;4.37;2.70;;;;;;;19.39;39.82;98625.44;5073296;28;20208;-71
2022/05/07 11:25:57;;;;;;;2.73;2.20;;;;;;;19.17;42.46;98628.25;5073284;28;20295;-71
2022/05/07 11:28:24;;;;;;;2.70;2.33;;;;;;;19.76;42.23;98622.66;5073129;28;20302;-71
2022/05/07 11:30:53;;;;;;;5.53;2.17;;;;;;;19.40;41.55;98618.94;5072710;28;20679;-71
2022/05/07 11:33:26;;;;;;;4.67;2.40;;;;;;;19.29;41.11;98617.28;5072812;28;20646;-71
2022/05/07 11:36:02;;;;;;;5.60;2.17;;;;;;;19.93;42.45;98621.34;5072837;28;20295;-71
2022/05/07 11:38:29;;;;;;;5.33;2.50;;;;;;;19.68;41.44;98613.19;5072737;28;20228;-71
2022/05/07 11:40:55;;;;;;;4.00;2.00;;;;;;;19.28;42.49;98618.38;5073033;28;20204;-71
2022/05/07 11:46:07;;;;;;;3.90;2.13;;;;;;;19.86;43.87;98611.88;5073023;28;20214;-71
2022/05/07 11:48:34;;;;;;;4.97;2.40;;;;;;;19.75;41.03;98607.53;5072894;28;20235;-71
2022/05/07 11:51:00;;;;;;;2.63;2.40;;;;;;;19.85;41.91;98607.56;5072376;28;20212;-71
2022/05/07 11:53:31;;;;;;;3.70;2.43;;;;;;;20.03;40.82;98599.00;5072658;28;20222;-71
2022/05/07 11:56:09;;;;;;;2.50;2.30;;;;;;;19.98;41.16;98604.38;5072523;28;20211;-71
2022/05/07 11:58:47;;;;;;;2.47;2.27;;;;;;;20.14;41.86;98604.19;5072492;28;20217;-71
2022/05/07 12:01:22;;;;;;;3.87;2.43;;;;;;;20.27;41.21;98602.84;5072778;28;20210;-71